createdAt,value
2022-11-16T00:00:17.271Z,0.00
2022-11-16T00:01:17.342Z,0.00
2022-11-16T00:02:17.292Z,0.00
2022-11-16T00:03:17.235Z,0.00
2022-11-16T00:04:17.210Z,0.00
2022-11-16T00:05:17.222Z,0.00
2022-11-16T00:06:17.208Z,0.00
2022-11-16T00:07:17.231Z,0.00
2022-11-16T00:08:17.173Z,0.00
2022-11-16T00:09:17.168Z,0.00
2022-11-16T00:10:17.143Z,0.00
2022-11-16T00:11:17.135Z,0.00
2022-11-16T00:12:17.122Z,0.00
2022-11-16T00:13:17.117Z,0.00
2022-11-16T00:14:17.142Z,0.00
2022-11-16T00:15:17.083Z,0.00
2022-11-16T00:16:17.081Z,0.00
2022-11-16T00:17:17.084Z,0.00
2022-11-16T00:18:17.059Z,0.00
2022-11-16T00:19:17.070Z,0.00
2022-11-16T00:20:17.071Z,0.00
2022-11-16T00:21:17.031Z,0.00
2022-11-16T00:22:17.023Z,0.00
2022-11-16T00:23:17.013Z,0.00
2022-11-16T00:24:16.996Z,0.00
2022-11-16T00:25:17.008Z,0.00
2022-11-16T00:26:16.993Z,0.00
2022-11-16T00:27:16.951Z,0.00
2022-11-16T00:28:16.946Z,0.00
2022-11-16T00:29:16.949Z,0.00
2022-11-16T00:30:16.956Z,0.00
2022-11-16T00:31:16.906Z,0.00
2022-11-16T00:32:16.906Z,0.00
2022-11-16T00:33:16.885Z,0.00
2022-11-16T00:34:16.895Z,0.00
2022-11-16T00:35:16.859Z,0.00
2022-11-16T00:36:16.851Z,0.00
2022-11-16T00:37:16.846Z,0.00
2022-11-16T00:38:16.829Z,0.00
2022-11-16T00:39:16.833Z,0.00
2022-11-16T00:40:16.807Z,0.00
2022-11-16T00:41:16.788Z,0.00
2022-11-16T00:42:16.805Z,0.00
2022-11-16T00:43:16.792Z,0.00
2022-11-16T00:44:16.757Z,0.00
2022-11-16T00:45:18.019Z,0.00
2022-11-16T00:46:25.394Z,0.00
2022-11-16T00:47:16.729Z,0.00
2022-11-16T00:48:16.722Z,0.00
2022-11-16T00:49:16.703Z,0.00
2022-11-16T00:50:16.692Z,0.00
2022-11-16T00:51:16.699Z,0.00
2022-11-16T00:52:16.665Z,0.00
2022-11-16T00:53:16.673Z,0.00
2022-11-16T00:54:16.642Z,0.00
2022-11-16T00:55:16.636Z,0.00
2022-11-16T00:56:16.642Z,0.00
2022-11-16T00:57:16.611Z,0.00
2022-11-16T00:58:16.604Z,0.00
2022-11-16T00:59:16.593Z,0.00
2022-11-16T01:00:16.605Z,0.00
2022-11-16T01:01:16.703Z,0.00
2022-11-16T01:02:16.625Z,0.00
2022-11-16T01:03:16.548Z,0.00
2022-11-16T01:04:16.581Z,0.00
2022-11-16T01:05:16.547Z,0.00
2022-11-16T01:06:16.529Z,0.00
2022-11-16T01:07:16.638Z,0.00
2022-11-16T01:08:16.499Z,0.00
2022-11-16T01:09:16.477Z,0.00
2022-11-16T01:10:16.481Z,0.00
2022-11-16T01:11:16.471Z,0.00
2022-11-16T01:12:16.442Z,0.00
2022-11-16T01:13:16.427Z,0.00
2022-11-16T01:14:16.435Z,0.00
2022-11-16T01:15:16.420Z,0.00
2022-11-16T01:16:16.414Z,0.00
2022-11-16T01:17:16.394Z,0.00
2022-11-16T01:18:16.390Z,0.00
2022-11-16T01:19:16.385Z,0.00
2022-11-16T01:20:16.357Z,0.00
2022-11-16T01:21:16.347Z,0.00
2022-11-16T01:22:16.387Z,0.00
2022-11-16T01:23:16.334Z,0.00
2022-11-16T01:24:16.316Z,0.00
2022-11-16T01:25:16.315Z,0.00
2022-11-16T01:26:16.290Z,0.00
2022-11-16T01:27:16.269Z,0.00
2022-11-16T01:28:16.261Z,0.00
2022-11-16T01:29:16.281Z,0.00
2022-11-16T01:30:16.265Z,0.00
2022-11-16T01:31:16.225Z,0.00
2022-11-16T01:32:16.250Z,0.00
2022-11-16T01:33:16.202Z,0.00
2022-11-16T01:34:16.226Z,0.00
2022-11-16T01:35:16.200Z,0.00
2022-11-16T01:36:16.173Z,0.00
2022-11-16T01:37:16.181Z,0.00
2022-11-16T01:38:16.162Z,0.00
2022-11-16T01:39:16.139Z,0.00
2022-11-16T01:40:16.142Z,0.00
2022-11-16T01:41:16.119Z,0.00
2022-11-16T01:42:16.127Z,0.00
2022-11-16T01:43:16.088Z,0.00
2022-11-16T01:44:16.078Z,0.00
2022-11-16T01:45:16.067Z,0.00
2022-11-16T01:46:16.056Z,0.00
2022-11-16T01:47:16.070Z,0.00
2022-11-16T01:48:16.115Z,0.00
2022-11-16T01:49:16.026Z,0.00
2022-11-16T01:50:16.043Z,0.00
2022-11-16T01:51:16.011Z,0.00
2022-11-16T01:52:16.000Z,0.00
2022-11-16T01:53:16.005Z,0.00
2022-11-16T01:54:16.141Z,0.00
2022-11-16T01:55:15.964Z,0.00
2022-11-16T01:56:15.948Z,0.00
2022-11-16T01:57:15.940Z,0.00
2022-11-16T01:58:15.924Z,0.00
2022-11-16T01:59:15.933Z,0.00
2022-11-16T02:00:15.927Z,0.00
2022-11-16T02:01:15.980Z,0.00
2022-11-16T02:02:15.886Z,0.00
2022-11-16T02:03:15.903Z,0.00
2022-11-16T02:04:15.983Z,0.00
2022-11-16T02:05:15.843Z,0.00
2022-11-16T02:06:15.852Z,0.00
2022-11-16T02:07:15.916Z,0.00
2022-11-16T02:08:15.829Z,0.00
2022-11-16T02:09:15.818Z,0.00
2022-11-16T02:10:15.785Z,0.00
2022-11-16T02:11:15.778Z,0.00
2022-11-16T02:12:15.772Z,0.00
2022-11-16T02:13:15.758Z,0.00
2022-11-16T02:14:15.735Z,0.00
2022-11-16T02:15:15.796Z,0.00
2022-11-16T02:16:15.739Z,0.00
2022-11-16T02:17:15.710Z,0.00
2022-11-16T02:18:15.696Z,0.00
2022-11-16T02:19:15.690Z,0.00
2022-11-16T02:20:15.704Z,0.00
2022-11-16T02:21:15.657Z,0.00
2022-11-16T02:22:15.663Z,0.00
2022-11-16T02:23:15.634Z,0.00
2022-11-16T02:24:15.621Z,0.00
2022-11-16T02:25:15.754Z,0.00
2022-11-16T02:26:15.601Z,0.00
2022-11-16T02:27:15.594Z,0.00
2022-11-16T02:28:15.601Z,0.00
2022-11-16T02:29:15.595Z,0.00
2022-11-16T02:30:15.575Z,0.00
2022-11-16T02:31:15.569Z,0.00
2022-11-16T02:32:15.534Z,0.00
2022-11-16T02:33:15.527Z,0.00
2022-11-16T02:34:15.508Z,0.00
2022-11-16T02:35:15.506Z,0.00
2022-11-16T02:36:15.491Z,0.00
2022-11-16T02:37:15.510Z,0.00
2022-11-16T02:38:15.488Z,0.00
2022-11-16T02:39:15.488Z,0.00
2022-11-16T02:40:15.454Z,0.00
2022-11-16T02:41:15.432Z,0.00
2022-11-16T02:42:15.441Z,0.00
2022-11-16T02:43:15.404Z,0.00
2022-11-16T02:44:15.399Z,0.00
2022-11-16T02:45:15.409Z,0.00
2022-11-16T02:46:15.391Z,0.00
2022-11-16T02:47:15.377Z,0.00
2022-11-16T02:48:15.451Z,0.00
2022-11-16T02:49:15.352Z,0.00
2022-11-16T02:50:15.354Z,0.00
2022-11-16T02:51:15.350Z,0.00
2022-11-16T02:52:15.316Z,0.00
2022-11-16T02:53:15.308Z,0.00
2022-11-16T02:54:15.570Z,0.00
2022-11-16T02:55:15.286Z,0.00
2022-11-16T02:56:15.289Z,0.00
2022-11-16T02:57:15.402Z,0.00
2022-11-16T02:58:15.247Z,0.00
2022-11-16T02:59:17.610Z,0.00
2022-11-16T03:00:15.215Z,0.00
2022-11-16T03:01:15.295Z,0.00
2022-11-16T03:02:15.244Z,0.00
2022-11-16T03:03:15.208Z,0.00
2022-11-16T03:04:15.186Z,0.00
2022-11-16T03:05:15.166Z,0.00
2022-11-16T03:06:15.176Z,0.00
2022-11-16T03:07:15.199Z,0.00
2022-11-16T03:08:15.127Z,0.00
2022-11-16T03:09:15.127Z,0.00
2022-11-16T03:10:15.140Z,0.00
2022-11-16T03:11:15.125Z,0.00
2022-11-16T03:12:15.086Z,0.00
2022-11-16T03:13:15.100Z,0.00
2022-11-16T03:14:15.067Z,0.00
2022-11-16T03:15:15.049Z,0.00
2022-11-16T03:16:15.053Z,0.00
2022-11-16T03:17:15.120Z,0.00
2022-11-16T03:18:15.163Z,0.00
2022-11-16T03:19:15.004Z,0.00
2022-11-16T03:20:15.108Z,0.00
2022-11-16T03:22:32.013Z,0.00
2022-11-16T03:23:26.226Z,0.00
2022-11-16T03:24:26.243Z,0.00
2022-11-16T03:25:26.246Z,0.00
2022-11-16T03:26:26.185Z,0.00
2022-11-16T03:27:26.175Z,0.00
2022-11-16T03:28:26.185Z,0.00
2022-11-16T03:29:26.161Z,0.00
2022-11-16T03:30:26.261Z,0.00
2022-11-16T03:31:26.149Z,0.00
2022-11-16T03:32:26.121Z,0.00
2022-11-16T03:33:26.139Z,0.00
2022-11-16T03:34:26.098Z,0.00
2022-11-16T03:35:26.109Z,0.00
2022-11-16T03:36:26.107Z,0.00
2022-11-16T03:37:26.138Z,0.00
2022-11-16T03:38:26.085Z,0.00
2022-11-16T03:39:26.042Z,0.00
2022-11-16T03:40:26.029Z,0.00
2022-11-16T03:41:26.053Z,0.00
2022-11-16T03:42:26.007Z,0.00
2022-11-16T03:43:25.995Z,0.00
2022-11-16T03:44:25.986Z,0.00
2022-11-16T03:45:25.973Z,0.00
2022-11-16T03:46:26.021Z,0.00
2022-11-16T03:47:25.966Z,0.00
2022-11-16T03:48:25.945Z,0.00
2022-11-16T03:49:25.929Z,0.00
2022-11-16T03:50:25.919Z,0.00
2022-11-16T03:51:25.923Z,0.00
2022-11-16T03:52:25.899Z,0.00
2022-11-16T03:53:25.929Z,0.00
2022-11-16T03:54:25.884Z,0.00
2022-11-16T03:55:25.867Z,0.00
2022-11-16T03:56:25.903Z,0.00
2022-11-16T03:57:25.955Z,0.00
2022-11-16T03:58:25.842Z,0.00
2022-11-16T03:59:25.814Z,0.00
2022-11-16T04:00:25.809Z,0.00
2022-11-16T04:01:25.865Z,0.00
2022-11-16T04:02:25.825Z,0.00
2022-11-16T04:03:25.780Z,0.00
2022-11-16T04:04:25.767Z,0.00
2022-11-16T04:05:25.755Z,0.00
2022-11-16T04:06:25.738Z,0.00
2022-11-16T04:07:25.801Z,0.00
2022-11-16T04:08:25.727Z,0.00
2022-11-16T04:09:25.760Z,0.00
2022-11-16T04:10:25.697Z,0.00
2022-11-16T04:11:25.704Z,0.00
2022-11-16T04:12:25.671Z,0.00
2022-11-16T04:13:25.696Z,0.00
2022-11-16T04:14:25.651Z,0.00
2022-11-16T04:15:25.643Z,0.00
2022-11-16T04:16:25.652Z,0.00
2022-11-16T04:17:25.656Z,0.00
2022-11-16T04:18:25.659Z,0.00
2022-11-16T04:19:25.607Z,0.00
2022-11-16T04:20:25.584Z,0.00
2022-11-16T04:21:25.580Z,0.00
2022-11-16T04:22:25.564Z,0.00
2022-11-16T04:23:25.609Z,0.00
2022-11-16T04:24:25.535Z,0.00
2022-11-16T04:25:25.524Z,0.00
2022-11-16T04:26:25.518Z,0.00
2022-11-16T04:27:25.510Z,0.00
2022-11-16T04:28:25.522Z,0.00
2022-11-16T04:29:25.496Z,0.00
2022-11-16T04:30:25.487Z,0.00
2022-11-16T04:31:25.470Z,0.00
2022-11-16T04:32:25.460Z,0.00
2022-11-16T04:33:25.486Z,0.00
2022-11-16T04:34:25.430Z,0.00
2022-11-16T04:35:25.412Z,0.00
2022-11-16T04:36:25.398Z,0.00
2022-11-16T04:37:25.405Z,0.00
2022-11-16T04:38:25.374Z,0.00
2022-11-16T04:39:25.406Z,0.00
2022-11-16T04:40:25.363Z,0.00
2022-11-16T04:41:25.341Z,0.00
2022-11-16T04:42:25.335Z,0.00
2022-11-16T04:43:25.327Z,0.00
2022-11-16T04:44:29.878Z,0.00
2022-11-16T04:45:25.315Z,0.00
2022-11-16T04:46:25.356Z,0.00
2022-11-16T04:47:25.327Z,0.00
2022-11-16T04:48:25.267Z,0.00
2022-11-16T04:49:25.257Z,0.00
2022-11-16T04:50:25.261Z,0.00
2022-11-16T04:51:25.234Z,0.00
2022-11-16T04:52:25.262Z,0.00
2022-11-16T04:53:25.216Z,0.00
2022-11-16T04:54:25.222Z,0.00
2022-11-16T04:55:25.193Z,0.00
2022-11-16T04:56:25.202Z,0.00
2022-11-16T04:57:25.183Z,0.00
2022-11-16T04:58:25.171Z,0.00
2022-11-16T04:59:25.144Z,0.00
2022-11-16T05:00:25.151Z,0.00
2022-11-16T05:01:25.162Z,0.00
2022-11-16T05:02:25.137Z,0.00
2022-11-16T05:03:25.099Z,0.00
2022-11-16T05:04:25.100Z,0.00
2022-11-16T05:05:25.103Z,0.00
2022-11-16T05:06:25.080Z,0.00
2022-11-16T05:07:25.206Z,0.00
2022-11-16T05:08:25.041Z,0.00
2022-11-16T05:09:25.028Z,0.00
2022-11-16T05:10:25.038Z,0.00
2022-11-16T05:11:25.002Z,0.00
2022-11-16T05:12:24.998Z,0.00
2022-11-16T05:13:25.004Z,0.00
2022-11-16T05:14:24.994Z,0.00
2022-11-16T05:15:24.966Z,0.00
2022-11-16T05:16:24.963Z,0.00
2022-11-16T05:17:25.005Z,0.00
2022-11-16T05:18:24.948Z,0.00
2022-11-16T05:19:24.912Z,0.00
2022-11-16T05:20:24.905Z,0.00
2022-11-16T05:21:24.891Z,0.00
2022-11-16T05:22:24.904Z,0.00
2022-11-16T05:23:24.881Z,0.00
2022-11-16T05:24:24.872Z,0.00
2022-11-16T05:25:24.881Z,0.00
2022-11-16T05:26:24.840Z,0.00
2022-11-16T05:27:24.838Z,0.00
2022-11-16T05:28:24.815Z,0.00
2022-11-16T05:29:24.815Z,0.00
2022-11-16T05:30:24.815Z,0.00
2022-11-16T05:31:24.783Z,0.00
2022-11-16T05:32:24.812Z,0.00
2022-11-16T05:33:24.788Z,0.00
2022-11-16T05:34:24.750Z,0.00
2022-11-16T05:35:24.731Z,0.00
2022-11-16T05:36:24.722Z,0.00
2022-11-16T05:37:24.711Z,0.00
2022-11-16T05:38:24.722Z,0.00
2022-11-16T05:39:24.693Z,0.00
2022-11-16T05:40:24.685Z,0.00
2022-11-16T05:41:24.670Z,0.00
2022-11-16T05:42:24.676Z,0.00
2022-11-16T05:43:24.664Z,0.00
2022-11-16T05:44:24.643Z,0.00
2022-11-16T05:45:24.622Z,0.00
2022-11-16T05:46:24.631Z,0.00
2022-11-16T05:47:24.611Z,0.00
2022-11-16T05:48:24.612Z,0.00
2022-11-16T05:49:24.608Z,0.00
2022-11-16T05:50:24.580Z,0.00
2022-11-16T05:51:24.559Z,0.00
2022-11-16T05:52:24.568Z,0.00
2022-11-16T05:53:24.538Z,0.00
2022-11-16T05:54:24.522Z,0.00
2022-11-16T05:55:24.508Z,0.00
2022-11-16T05:56:24.565Z,0.00
2022-11-16T05:57:24.510Z,0.00
2022-11-16T05:58:24.503Z,0.00
2022-11-16T05:59:24.468Z,0.00
2022-11-16T06:00:24.462Z,0.00
2022-11-16T06:01:24.455Z,0.00
2022-11-16T06:02:24.463Z,0.00
2022-11-16T06:03:24.502Z,0.00
2022-11-16T06:04:24.983Z,0.00
2022-11-16T06:05:24.408Z,0.00
2022-11-16T06:06:24.426Z,0.00
2022-11-16T06:07:24.460Z,0.00
2022-11-16T06:08:24.373Z,0.00
2022-11-16T06:09:24.388Z,0.00
2022-11-16T06:10:24.346Z,0.00
2022-11-16T06:11:24.346Z,0.00
2022-11-16T06:12:24.329Z,0.00
2022-11-16T06:13:24.315Z,0.00
2022-11-16T06:14:24.303Z,0.00
2022-11-16T06:15:24.284Z,0.00
2022-11-16T06:16:24.560Z,0.00
2022-11-16T06:17:24.277Z,0.00
2022-11-16T06:18:24.261Z,4.00
2022-11-16T06:19:28.212Z,4.00
2022-11-16T06:20:25.250Z,0.00
2022-11-16T06:21:24.223Z,4.00
2022-11-16T06:22:24.210Z,4.00
2022-11-16T06:23:24.200Z,4.00
2022-11-16T06:24:24.205Z,4.00
2022-11-16T06:25:24.171Z,4.00
2022-11-16T06:26:24.183Z,4.00
2022-11-16T06:27:24.178Z,4.00
2022-11-16T06:28:24.167Z,4.00
2022-11-16T06:29:24.127Z,4.00
2022-11-16T06:30:24.118Z,4.00
2022-11-16T06:31:24.173Z,4.00
2022-11-16T06:32:24.239Z,8.00
2022-11-16T06:33:24.081Z,8.00
2022-11-16T06:34:24.071Z,8.00
2022-11-16T06:35:24.093Z,8.00
2022-11-16T06:36:24.084Z,8.00
2022-11-16T06:37:24.047Z,12.00
2022-11-16T06:38:24.024Z,12.00
2022-11-16T06:39:24.025Z,12.00
2022-11-16T06:40:24.006Z,12.00
2022-11-16T06:41:24.012Z,12.00
2022-11-16T06:42:23.982Z,12.00
2022-11-16T06:43:23.980Z,20.00
2022-11-16T06:44:23.965Z,20.00
2022-11-16T06:45:23.947Z,20.00
2022-11-16T06:47:32.796Z,28.00
2022-11-16T06:48:32.962Z,32.00
2022-11-16T06:49:32.665Z,32.00
2022-11-16T06:50:32.635Z,40.00
2022-11-16T06:51:32.647Z,44.00
2022-11-16T06:52:32.616Z,52.00
2022-11-16T06:53:32.623Z,64.00
2022-11-16T06:54:32.591Z,68.00
2022-11-16T06:55:32.585Z,76.00
2022-11-16T06:56:32.573Z,80.00
2022-11-16T06:57:32.587Z,88.00
2022-11-16T06:58:33.091Z,92.00
2022-11-16T06:59:32.536Z,88.00
2022-11-16T07:00:32.554Z,84.00
2022-11-16T07:01:32.559Z,84.00
2022-11-16T07:02:32.522Z,100.00
2022-11-16T07:03:32.753Z,116.00
2022-11-16T07:04:32.485Z,124.00
2022-11-16T07:05:32.477Z,128.00
2022-11-16T07:06:32.463Z,124.00
2022-11-16T07:07:32.518Z,116.00
2022-11-16T07:08:32.842Z,112.00
2022-11-16T07:09:32.429Z,112.00
2022-11-16T07:10:32.426Z,96.00
2022-11-16T07:11:32.410Z,64.00
2022-11-16T07:12:32.410Z,56.00
2022-11-16T07:13:32.423Z,60.00
2022-11-16T07:14:32.361Z,60.00
2022-11-16T07:15:32.356Z,60.00
2022-11-16T07:16:32.359Z,76.00
2022-11-16T07:17:32.346Z,84.00
2022-11-16T07:18:32.747Z,84.00
2022-11-16T07:19:32.437Z,88.00
2022-11-16T07:20:32.297Z,84.00
2022-11-16T07:21:32.287Z,80.00
2022-11-16T07:22:32.298Z,80.00
2022-11-16T07:23:32.287Z,88.00
2022-11-16T07:24:32.274Z,92.00
2022-11-16T07:25:32.255Z,92.00
2022-11-16T07:26:32.227Z,100.00
2022-11-16T07:27:32.290Z,112.00
2022-11-16T07:28:32.726Z,124.00
2022-11-16T07:29:32.212Z,136.00
2022-11-16T07:30:32.185Z,140.00
2022-11-16T07:31:32.187Z,136.00
2022-11-16T07:32:32.172Z,144.00
2022-11-16T07:33:32.156Z,144.00
2022-11-16T07:34:32.170Z,164.00
2022-11-16T07:35:32.271Z,204.00
2022-11-16T07:36:32.117Z,224.00
2022-11-16T07:37:32.118Z,220.00
2022-11-16T07:38:32.587Z,208.00
2022-11-16T07:39:32.090Z,208.00
2022-11-16T07:40:32.108Z,212.00
2022-11-16T07:41:32.062Z,224.00
2022-11-16T07:42:32.053Z,248.00
2022-11-16T07:43:32.068Z,264.00
2022-11-16T07:44:32.041Z,260.00
2022-11-16T07:45:32.016Z,244.00
2022-11-16T07:46:48.503Z,244.00
2022-11-16T07:47:33.047Z,256.00
2022-11-16T07:48:32.335Z,268.00
2022-11-16T07:49:31.975Z,296.00
2022-11-16T07:50:31.963Z,284.00
2022-11-16T07:51:31.990Z,304.00
2022-11-16T07:52:31.966Z,280.00
2022-11-16T07:53:31.931Z,296.00
2022-11-16T07:54:31.936Z,280.00
2022-11-16T07:55:31.901Z,268.00
2022-11-16T07:56:31.907Z,256.00
2022-11-16T07:57:31.879Z,272.00
2022-11-16T07:58:32.253Z,304.00
2022-11-16T07:59:31.864Z,296.00
2022-11-16T08:00:31.843Z,276.00
2022-11-16T08:01:31.863Z,268.00
2022-11-16T08:02:31.842Z,264.00
2022-11-16T08:03:31.824Z,288.00
2022-11-16T08:04:31.804Z,304.00
2022-11-16T08:05:31.814Z,308.00
2022-11-16T08:06:31.852Z,312.00
2022-11-16T08:07:31.836Z,320.00
2022-11-16T08:08:32.092Z,320.00
2022-11-16T08:09:31.775Z,296.00
2022-11-16T08:10:31.789Z,288.00
2022-11-16T08:11:31.732Z,292.00
2022-11-16T08:12:31.708Z,292.00
2022-11-16T08:13:31.699Z,292.00
2022-11-16T08:14:31.698Z,312.00
2022-11-16T08:15:31.685Z,340.00
2022-11-16T08:16:31.688Z,372.00
2022-11-16T08:17:31.669Z,396.00
2022-11-16T08:18:32.075Z,384.00
2022-11-16T08:19:31.634Z,376.00
2022-11-16T08:20:31.619Z,388.00
2022-11-16T08:21:31.608Z,388.00
2022-11-16T08:22:31.613Z,392.00
2022-11-16T08:23:31.656Z,424.00
2022-11-16T08:24:31.579Z,436.00
2022-11-16T08:25:31.568Z,448.00
2022-11-16T08:26:31.563Z,480.00
2022-11-16T08:27:31.546Z,508.00
2022-11-16T08:28:31.976Z,532.00
2022-11-16T08:29:31.518Z,500.00
2022-11-16T08:30:31.509Z,448.00
2022-11-16T08:31:31.507Z,460.00
2022-11-16T08:32:31.483Z,476.00
2022-11-16T08:33:31.481Z,472.00
2022-11-16T08:34:31.457Z,476.00
2022-11-16T08:35:31.457Z,504.00
2022-11-16T08:36:31.460Z,484.00
2022-11-16T08:37:31.444Z,456.00
2022-11-16T08:38:31.636Z,440.00
2022-11-16T08:39:31.440Z,456.00
2022-11-16T08:40:31.395Z,496.00
2022-11-16T08:41:31.381Z,508.00
2022-11-16T08:42:31.395Z,532.00
2022-11-16T08:43:31.359Z,548.00
2022-11-16T08:44:31.365Z,508.00
2022-11-16T08:45:31.365Z,424.00
2022-11-16T08:46:31.323Z,368.00
2022-11-16T08:47:31.333Z,356.00
2022-11-16T08:48:31.600Z,356.00
2022-11-16T08:49:31.298Z,368.00
2022-11-16T08:50:33.539Z,368.00
2022-11-16T08:51:32.273Z,348.00
2022-11-16T08:52:31.274Z,376.00
2022-11-16T08:53:31.241Z,456.00
2022-11-16T08:54:31.246Z,508.00
2022-11-16T08:55:31.332Z,580.00
2022-11-16T08:56:31.230Z,668.00
2022-11-16T08:57:31.234Z,748.00
2022-11-16T08:58:31.511Z,860.00
2022-11-16T08:59:31.179Z,868.00
2022-11-16T09:00:31.179Z,860.00
2022-11-16T09:01:31.179Z,756.00
2022-11-16T09:02:31.171Z,700.00
2022-11-16T09:03:31.149Z,724.00
2022-11-16T09:04:36.718Z,680.00
2022-11-16T09:05:32.111Z,624.00
2022-11-16T09:06:31.097Z,588.00
2022-11-16T09:07:31.120Z,628.00
2022-11-16T09:08:31.365Z,744.00
2022-11-16T09:09:31.069Z,756.00
2022-11-16T09:10:31.056Z,764.00
2022-11-16T09:11:31.091Z,772.00
2022-11-16T09:12:31.060Z,732.00
2022-11-16T09:13:31.044Z,660.00
2022-11-16T09:14:31.011Z,772.00
2022-11-16T09:15:31.003Z,908.00
2022-11-16T09:16:31.034Z,864.00
2022-11-16T09:17:31.018Z,816.00
2022-11-16T09:18:31.286Z,856.00
2022-11-16T09:19:30.950Z,860.00
2022-11-16T09:20:30.936Z,980.00
2022-11-16T09:21:30.949Z,908.00
2022-11-16T09:22:30.933Z,816.00
2022-11-16T09:23:30.909Z,760.00
2022-11-16T09:24:30.906Z,696.00
2022-11-16T09:25:30.917Z,768.00
2022-11-16T09:26:30.881Z,900.00
2022-11-16T09:27:30.973Z,940.00
2022-11-16T09:28:31.094Z,944.00
2022-11-16T09:29:30.842Z,980.00
2022-11-16T09:30:30.874Z,952.00
2022-11-16T09:31:30.817Z,868.00
2022-11-16T09:32:30.810Z,968.00
2022-11-16T09:33:31.062Z,1004.00
2022-11-16T09:34:30.813Z,1084.00
2022-11-16T09:35:30.775Z,996.00
2022-11-16T09:36:30.783Z,1048.00
2022-11-16T09:37:30.790Z,1032.00
2022-11-16T09:38:47.444Z,1088.00
2022-11-16T09:39:32.257Z,1092.00
2022-11-16T09:40:30.718Z,1036.00
2022-11-16T09:41:30.705Z,1000.00
2022-11-16T09:42:30.713Z,984.00
2022-11-16T09:43:31.021Z,1064.00
2022-11-16T09:44:30.687Z,1244.00
2022-11-16T09:45:30.667Z,1360.00
2022-11-16T09:46:30.669Z,1392.00
2022-11-16T09:47:30.698Z,1588.00
2022-11-16T09:48:30.621Z,1756.00
2022-11-16T09:49:30.652Z,1804.00
2022-11-16T09:50:30.600Z,1920.00
2022-11-16T09:51:30.609Z,2020.00
2022-11-16T09:52:30.588Z,1992.00
2022-11-16T09:53:30.584Z,1996.00
2022-11-16T09:54:30.557Z,1884.00
2022-11-16T09:55:30.564Z,1944.00
2022-11-16T09:56:30.530Z,2000.00
2022-11-16T09:57:30.519Z,2024.00
2022-11-16T09:58:31.644Z,2008.00
2022-11-16T09:59:30.543Z,1924.00
2022-11-16T10:00:30.597Z,1848.00
2022-11-16T10:01:30.491Z,1796.00
2022-11-16T10:02:30.471Z,1736.00
2022-11-16T10:03:30.539Z,1744.00
2022-11-16T10:04:30.444Z,1828.00
2022-11-16T10:05:30.433Z,1868.00
2022-11-16T10:06:30.433Z,1860.00
2022-11-16T10:07:30.584Z,1988.00
2022-11-16T10:08:30.608Z,2084.00
2022-11-16T10:09:30.402Z,2120.00
2022-11-16T10:10:30.388Z,2104.00
2022-11-16T10:11:30.379Z,2072.00
2022-11-16T10:12:30.353Z,2016.00
2022-11-16T10:13:30.341Z,1948.00
2022-11-16T10:14:30.344Z,1940.00
2022-11-16T10:15:30.338Z,1972.00
2022-11-16T10:16:30.307Z,1892.00
2022-11-16T10:17:30.311Z,1912.00
2022-11-16T10:18:30.296Z,1900.00
2022-11-16T10:19:30.274Z,1900.00
2022-11-16T10:20:31.076Z,1840.00
2022-11-16T10:21:30.255Z,1752.00
2022-11-16T10:22:30.261Z,1604.00
2022-11-16T10:23:30.466Z,1672.00
2022-11-16T10:24:30.214Z,1724.00
2022-11-16T10:25:30.205Z,1668.00
2022-11-16T10:26:30.202Z,1640.00
2022-11-16T10:27:30.203Z,1692.00
2022-11-16T10:28:30.175Z,1676.00
2022-11-16T10:29:30.164Z,1724.00
2022-11-16T10:30:30.178Z,1736.00
2022-11-16T10:31:30.176Z,1720.00
2022-11-16T10:32:30.132Z,1696.00
2022-11-16T10:33:30.128Z,1648.00
2022-11-16T10:34:30.109Z,1640.00
2022-11-16T10:35:30.097Z,1648.00
2022-11-16T10:36:30.084Z,1688.00
2022-11-16T10:37:30.099Z,1808.00
2022-11-16T10:39:39.294Z,1924.00
2022-11-16T10:40:39.294Z,1916.00
2022-11-16T10:41:39.269Z,2000.00
2022-11-16T10:48:23.833Z,2580.00
2022-11-16T10:49:23.802Z,2588.00
2022-11-16T10:50:23.778Z,2524.00
2022-11-16T10:51:23.770Z,2328.00
2022-11-16T10:52:23.760Z,2136.00
2022-11-16T10:53:23.777Z,2024.00
2022-11-16T10:54:23.772Z,1900.00
2022-11-16T10:55:23.762Z,1660.00
2022-11-16T10:56:23.737Z,1448.00
2022-11-16T10:57:24.048Z,1276.00
2022-11-16T10:58:23.691Z,1172.00
2022-11-16T10:59:23.687Z,1088.00
2022-11-16T11:00:23.737Z,1096.00
2022-11-16T11:01:23.792Z,1072.00
2022-11-16T11:02:23.744Z,1008.00
2022-11-16T11:03:23.659Z,1080.00
2022-11-16T11:04:23.664Z,1080.00
2022-11-16T11:05:23.620Z,1068.00
2022-11-16T11:06:23.608Z,1044.00
2022-11-16T11:07:23.682Z,1000.00
2022-11-16T11:08:23.607Z,976.00
2022-11-16T11:09:23.585Z,1008.00
2022-11-16T11:10:23.999Z,1160.00
2022-11-16T11:11:23.568Z,1236.00
2022-11-16T11:12:23.550Z,1500.00
2022-11-16T11:13:23.570Z,1612.00
2022-11-16T11:14:23.530Z,1704.00
2022-11-16T11:15:26.123Z,1704.00
2022-11-16T11:16:23.496Z,1704.00
2022-11-16T11:17:23.503Z,1632.00
2022-11-16T11:18:23.489Z,1628.00
2022-11-16T11:19:23.467Z,1756.00
2022-11-16T11:20:23.574Z,1700.00
2022-11-16T11:21:23.453Z,1540.00
2022-11-16T11:22:23.459Z,1492.00
2022-11-16T11:23:23.428Z,1416.00
2022-11-16T11:25:24.421Z,1352.00
2022-11-16T11:26:23.386Z,1332.00
2022-11-16T11:27:23.377Z,1340.00
2022-11-16T11:28:23.368Z,1312.00
2022-11-16T11:29:23.374Z,1332.00
2022-11-16T11:30:23.355Z,1232.00
2022-11-16T11:31:23.353Z,1128.00
2022-11-16T11:32:24.617Z,1108.00
2022-11-16T11:33:23.328Z,1096.00
2022-11-16T11:34:23.294Z,1036.00
2022-11-16T11:35:23.304Z,960.00
2022-11-16T11:36:23.410Z,876.00
2022-11-16T11:37:23.268Z,804.00
2022-11-16T11:38:23.245Z,784.00
2022-11-16T11:39:23.320Z,784.00
2022-11-16T11:40:23.230Z,716.00
2022-11-16T11:41:23.215Z,696.00
2022-11-16T11:42:23.226Z,724.00
2022-11-16T11:43:23.235Z,832.00
2022-11-16T11:44:23.187Z,1048.00
2022-11-16T11:45:23.192Z,1336.00
2022-11-16T11:46:23.164Z,1640.00
2022-11-16T11:48:24.165Z,2676.00
2022-11-16T11:49:23.127Z,2904.00
2022-11-16T11:50:23.116Z,2932.00
2022-11-16T11:51:23.128Z,2868.00
2022-11-16T11:52:23.216Z,2852.00
2022-11-16T11:53:23.111Z,2876.00
2022-11-16T11:54:23.107Z,3000.00
2022-11-16T11:55:23.083Z,3104.00
2022-11-16T11:56:23.083Z,2956.00
2022-11-16T11:57:23.045Z,2792.00
2022-11-16T11:58:23.050Z,2584.00
2022-11-16T11:59:23.048Z,2440.00
2022-11-16T12:00:23.018Z,2400.00
2022-11-16T12:01:25.587Z,2384.00
2022-11-16T12:02:22.993Z,2300.00
2022-11-16T12:03:23.137Z,2148.00
2022-11-16T12:04:22.980Z,2028.00
2022-11-16T12:05:22.982Z,1980.00
2022-11-16T12:06:22.936Z,1876.00
2022-11-16T12:07:23.013Z,1852.00
2022-11-16T12:08:23.050Z,2060.00
2022-11-16T12:09:22.916Z,2224.00
2022-11-16T12:10:22.932Z,2216.00
2022-11-16T12:11:22.884Z,2204.00
2022-11-16T12:12:22.868Z,2276.00
2022-11-16T12:13:22.863Z,2332.00
2022-11-16T12:14:22.858Z,2360.00
2022-11-16T12:15:22.911Z,2380.00
2022-11-16T12:16:22.850Z,2428.00
2022-11-16T12:17:22.870Z,2520.00
2022-11-16T12:18:22.932Z,2568.00
2022-11-16T12:19:22.807Z,2564.00
2022-11-16T12:20:22.788Z,2556.00
2022-11-16T12:21:22.798Z,2592.00
2022-11-16T12:22:22.773Z,2528.00
2022-11-16T12:23:22.782Z,2588.00
2022-11-16T12:24:22.764Z,2688.00
2022-11-16T12:25:22.757Z,2748.00
2022-11-16T12:26:22.822Z,2792.00
2022-11-16T12:27:22.747Z,2992.00
2022-11-16T12:28:22.719Z,3104.00
2022-11-16T12:29:22.692Z,3076.00
2022-11-16T12:30:22.703Z,3032.00
2022-11-16T12:31:22.661Z,2852.00
2022-11-16T12:32:22.672Z,2704.00
2022-11-16T12:33:22.670Z,2568.00
2022-11-16T12:34:22.690Z,2372.00
2022-11-16T12:35:22.635Z,2228.00
2022-11-16T12:36:22.664Z,2240.00
2022-11-16T12:37:22.789Z,2376.00
2022-11-16T12:38:26.202Z,2464.00
2022-11-16T12:39:22.573Z,2460.00
2022-11-16T12:40:22.600Z,2380.00
2022-11-16T12:41:22.553Z,2352.00
2022-11-16T12:42:22.544Z,2384.00
2022-11-16T12:43:22.537Z,2344.00
2022-11-16T12:44:22.514Z,2280.00
2022-11-16T12:45:25.260Z,2196.00
2022-11-16T12:46:23.520Z,2112.00
2022-11-16T12:47:30.551Z,2080.00
2022-11-16T12:48:22.511Z,2132.00
2022-11-16T12:49:22.468Z,2152.00
2022-11-16T12:50:22.473Z,2092.00
2022-11-16T12:51:25.234Z,2020.00
2022-11-16T12:52:23.433Z,1932.00
2022-11-16T12:53:22.420Z,1804.00
2022-11-16T12:54:22.430Z,1672.00
2022-11-16T12:55:27.226Z,1516.00
2022-11-16T12:56:23.497Z,1344.00
2022-11-16T12:57:22.380Z,1236.00
2022-11-16T12:58:22.361Z,1220.00
2022-11-16T12:59:22.370Z,1284.00